createdAt,value
2022-09-06T06:14:52.544Z,100704.97
2022-09-06T06:17:55.639Z,100721.78
2022-09-06T06:21:15.663Z,100717.50
2022-09-06T06:24:18.699Z,100719.84
2022-09-06T06:27:21.616Z,100714.13
2022-09-06T06:30:25.356Z,100719.16
2022-09-06T06:33:28.369Z,100721.81
2022-09-06T06:36:33.982Z,100721.09
2022-09-06T06:39:37.091Z,100722.81
2022-09-06T06:42:40.066Z,100740.03
2022-09-06T06:45:43.108Z,100738.37
2022-09-06T06:48:49.471Z,100745.75
2022-09-06T06:51:55.378Z,100739.84
2022-09-06T06:54:58.238Z,100741.19
2022-09-06T06:58:01.199Z,100742.56
2022-09-06T07:01:04.377Z,100744.22
2022-09-06T07:04:10.443Z,100748.94
2022-09-06T07:10:36.049Z,100745.19
2022-09-06T07:13:39.502Z,100747.50
2022-09-06T07:16:42.727Z,100757.19
2022-09-06T07:26:31.730Z,100749.78
2022-09-06T07:29:34.949Z,100747.19
2022-09-06T07:32:38.213Z,100746.69
2022-09-06T07:35:41.737Z,100747.34
2022-09-06T07:38:49.303Z,100745.87
2022-09-06T07:41:52.250Z,100741.91
2022-09-06T07:44:57.780Z,100742.28
2022-09-06T07:48:00.507Z,100741.38
2022-09-06T07:51:12.644Z,100750.75
2022-09-06T07:54:31.380Z,100748.38
2022-09-06T07:57:34.497Z,100741.84
2022-09-06T08:00:38.558Z,100743.00
2022-09-06T08:03:42.066Z,100741.28
2022-09-06T08:10:13.175Z,100741.63
2022-09-06T08:13:16.599Z,100744.28
2022-09-06T08:16:20.252Z,100745.31
2022-09-06T08:19:23.370Z,100744.38
2022-09-06T08:22:26.354Z,100740.88
2022-09-06T08:25:29.050Z,100742.06
2022-09-06T08:28:32.005Z,100740.50
2022-09-06T08:31:37.512Z,100733.50
2022-09-06T08:34:40.462Z,100729.88
2022-09-06T08:37:43.122Z,100726.72
2022-09-06T08:40:46.045Z,100729.88
2022-09-06T08:47:28.194Z,100727.28
2022-09-06T08:50:31.771Z,100729.22
2022-09-06T08:53:43.017Z,100729.13
2022-09-06T08:57:01.928Z,100724.84
2022-09-06T09:00:11.082Z,100729.00
2022-09-06T09:03:22.945Z,100720.50
2022-09-06T09:06:27.576Z,100708.22
2022-09-06T09:09:32.965Z,100717.16
2022-09-06T09:12:44.266Z,100709.69
2022-09-06T09:15:46.958Z,100709.88
2022-09-06T09:18:53.781Z,100703.34
2022-09-06T09:21:56.743Z,100693.59
2022-09-06T09:25:01.633Z,100689.13
2022-09-06T09:28:20.383Z,100685.66
2022-09-06T09:31:39.523Z,100677.91
2022-09-06T09:34:42.266Z,100675.38
2022-09-06T09:37:46.957Z,100676.06
2022-09-06T09:40:53.695Z,100669.94
2022-09-06T09:44:04.387Z,100666.28
2022-09-06T09:47:28.672Z,100656.94
2022-09-06T09:50:35.355Z,100662.53
2022-09-06T09:53:50.253Z,100660.87
2022-09-06T09:56:53.566Z,100660.28
2022-09-06T09:59:58.871Z,100648.06
2022-09-06T10:03:15.253Z,100644.13
2022-09-06T10:10:01.165Z,100633.50
2022-09-06T10:13:16.811Z,100637.53
2022-09-06T10:16:44.859Z,100635.03
2022-09-06T10:19:48.922Z,100630.63
2022-09-06T10:23:10.324Z,100629.69
2022-09-06T10:26:32.571Z,100630.88
2022-09-06T10:29:53.004Z,100625.66
2022-09-06T10:33:11.109Z,100612.69
2022-09-06T10:36:20.767Z,100607.53
2022-09-06T10:39:42.436Z,100600.47
2022-09-06T10:42:48.074Z,100592.06
2022-09-06T10:46:11.546Z,100595.59
2022-09-06T10:49:18.943Z,100592.66
2022-09-06T10:52:32.905Z,100592.59
2022-09-06T10:56:03.766Z,100599.22
2022-09-06T10:59:43.487Z,100598.31
2022-09-06T11:06:17.278Z,100597.59
2022-09-06T11:09:38.546Z,100591.75
2022-09-06T11:13:03.289Z,100592.00
2022-09-06T11:16:31.343Z,100584.97
2022-09-06T11:19:42.284Z,100584.19
2022-09-06T11:22:54.093Z,100577.47
2022-09-06T11:26:37.891Z,100575.72
2022-09-06T11:29:47.998Z,100574.44
2022-09-06T11:33:05.117Z,100574.12
2022-09-06T11:36:39.922Z,100569.94
2022-09-06T11:43:29.959Z,100558.28
2022-09-06T11:46:35.958Z,100564.25
2022-09-06T11:49:40.095Z,100550.50
2022-09-06T11:53:18.657Z,100550.28
2022-09-06T11:57:09.878Z,100550.00
2022-09-06T12:00:24.346Z,100543.75
2022-09-06T12:04:06.025Z,100543.06
2022-09-06T12:07:15.898Z,100536.50
2022-09-06T12:10:39.461Z,100533.59
2022-09-06T12:13:45.243Z,100531.03
2022-09-06T12:17:08.989Z,100527.50
2022-09-06T12:20:12.005Z,100519.59
2022-09-06T12:23:38.451Z,100509.81
2022-09-06T12:26:55.602Z,100503.50
2022-09-06T12:30:09.331Z,100508.56
2022-09-06T12:33:36.873Z,100491.34
2022-09-06T12:36:53.546Z,100494.78
2022-09-06T12:39:58.842Z,100485.97
2022-09-06T12:43:04.279Z,100488.78
2022-09-06T12:46:08.054Z,100479.22
2022-09-06T12:49:15.138Z,100480.44
2022-09-06T12:52:33.614Z,100471.44
2022-09-06T12:55:38.617Z,100465.97
2022-09-06T12:58:41.471Z,100452.00
2022-09-06T13:02:14.827Z,100462.28
2022-09-06T13:05:20.383Z,100452.25
2022-09-06T13:08:35.250Z,100448.41
2022-09-06T13:11:42.673Z,100439.44
2022-09-06T13:14:45.762Z,100442.12
2022-09-06T13:17:48.849Z,100434.28
2022-09-06T13:21:26.144Z,100434.41
2022-09-06T13:24:35.429Z,100423.06
2022-09-06T13:27:46.038Z,100427.34
2022-09-06T13:31:14.129Z,100416.41
2022-09-06T13:34:33.703Z,100417.59
2022-09-06T13:37:39.506Z,100409.75
2022-09-06T13:41:09.698Z,100416.81
2022-09-06T13:44:15.857Z,100407.81
2022-09-06T13:47:19.320Z,100399.94
2022-09-06T13:50:27.939Z,100400.75
2022-09-06T13:53:31.886Z,100397.59
2022-09-06T13:56:35.256Z,100395.28
2022-09-06T13:59:38.505Z,100391.28
2022-09-06T14:02:42.075Z,100383.41
2022-09-06T14:05:45.276Z,100386.25
2022-09-06T14:09:09.190Z,100386.28
2022-09-06T14:12:12.717Z,100372.53
2022-09-06T14:15:15.482Z,100373.34
2022-09-06T14:18:18.925Z,100367.84
2022-09-06T14:21:21.828Z,100366.34
2022-09-06T14:24:24.824Z,100365.59
2022-09-06T14:27:27.587Z,100366.72
2022-09-06T14:30:31.414Z,100358.50
2022-09-06T14:33:34.092Z,100360.88
2022-09-06T14:36:37.641Z,100362.09
2022-09-06T14:39:40.461Z,100352.25
2022-09-06T14:42:59.811Z,100356.56
2022-09-06T14:46:08.014Z,100342.91
2022-09-06T14:49:11.241Z,100333.91
2022-09-06T14:52:13.871Z,100331.53
2022-09-06T14:55:17.073Z,100334.69
2022-09-06T14:58:19.928Z,100336.25
2022-09-06T15:01:25.873Z,100329.13
2022-09-06T15:04:29.692Z,100326.81
2022-09-06T15:07:32.898Z,100318.56
2022-09-06T15:10:35.800Z,100325.63
2022-09-06T15:13:42.988Z,100317.75
2022-09-06T15:16:49.850Z,100315.37
2022-09-06T15:19:54.414Z,100305.13
2022-09-06T15:23:15.174Z,100314.25
2022-09-06T15:26:21.628Z,100312.38
2022-09-06T15:29:27.324Z,100309.22
2022-09-06T15:32:30.528Z,100315.91
2022-09-06T15:35:33.582Z,100317.09
2022-09-06T15:38:41.269Z,100311.63
2022-09-06T15:41:44.466Z,100316.28
2022-09-06T15:44:47.646Z,100322.91
2022-09-06T15:47:51.002Z,100320.97
2022-09-06T15:50:54.113Z,100317.78
2022-09-06T15:53:59.762Z,100324.06
2022-09-06T15:57:03.833Z,100323.69
2022-09-06T16:00:06.977Z,100320.97
2022-09-06T16:03:10.022Z,100320.97
2022-09-06T16:06:31.430Z,100321.38
2022-09-06T16:09:34.551Z,100325.97
2022-09-06T16:12:39.254Z,100330.56
2022-09-06T16:15:42.213Z,100323.69
2022-09-06T16:18:48.954Z,100321.13
2022-09-06T16:21:53.410Z,100323.50
2022-09-06T16:24:56.057Z,100321.91
2022-09-06T16:27:59.191Z,100326.72
2022-09-06T16:31:08.595Z,100326.19
2022-09-06T16:52:55.018Z,100406.13
2022-09-06T16:56:03.330Z,100391.34
2022-09-06T16:59:08.602Z,100416.00
2022-09-06T17:02:12.654Z,100420.44
2022-09-06T17:05:15.473Z,100416.06
2022-09-06T17:08:19.818Z,100397.56
2022-09-06T17:11:22.651Z,100394.53
2022-09-06T17:14:26.284Z,100394.78
2022-09-06T17:17:28.898Z,100392.97
2022-09-06T17:20:32.442Z,100394.47
2022-09-06T17:23:36.833Z,100403.41
2022-09-06T17:26:40.264Z,100392.66
2022-09-06T17:29:43.026Z,100399.16
2022-09-06T17:32:46.272Z,100401.44
2022-09-06T17:35:49.058Z,100395.44
2022-09-06T17:38:53.952Z,100385.78
2022-09-06T17:41:57.124Z,100392.13
2022-09-06T17:45:01.116Z,100390.47
2022-09-06T17:48:04.178Z,100394.75
2022-09-06T17:51:08.416Z,100392.97
2022-09-06T17:54:11.283Z,100392.19
2022-09-06T17:57:14.347Z,100378.66
2022-09-06T18:00:41.180Z,100396.78
2022-09-06T18:03:44.471Z,100386.91
2022-09-06T18:06:47.656Z,100395.25
2022-09-06T18:09:51.153Z,100403.44
2022-09-06T18:12:53.876Z,100411.47
2022-09-06T18:15:56.818Z,100413.94
2022-09-06T18:19:01.645Z,100415.84
2022-09-06T18:22:04.851Z,100424.53
2022-09-06T18:25:08.908Z,100427.44
2022-09-06T18:28:11.959Z,100432.16
2022-09-06T18:31:19.617Z,100438.66
2022-09-06T18:34:22.884Z,100445.47
2022-09-06T18:37:26.444Z,100448.19
2022-09-06T18:40:29.447Z,100433.37
2022-09-06T18:43:36.368Z,100427.13
2022-09-06T18:46:39.416Z,100420.59
2022-09-06T18:49:44.309Z,100420.25
2022-09-06T18:52:47.551Z,100416.53
2022-09-06T18:55:53.831Z,100416.19
2022-09-06T18:59:11.414Z,100418.34
2022-09-06T19:02:14.508Z,100423.41
2022-09-06T19:05:17.556Z,100424.19
2022-09-06T19:08:20.990Z,100421.13
2022-09-06T19:11:24.245Z,100428.22
2022-09-06T19:14:27.034Z,100426.38
2022-09-06T19:17:29.999Z,100415.19
2022-09-06T19:20:32.752Z,100421.25
2022-09-06T19:23:39.361Z,100422.53
2022-09-06T19:26:43.995Z,100426.31
2022-09-06T19:29:47.094Z,100432.63
2022-09-06T19:32:50.167Z,100428.94
2022-09-06T19:36:10.554Z,100425.91
2022-09-06T19:39:16.021Z,100422.16
2022-09-06T19:42:19.261Z,100418.84
2022-09-06T19:45:22.166Z,100423.63
2022-09-06T19:48:28.441Z,100424.53
2022-09-06T19:51:33.125Z,100418.69
2022-09-06T19:54:39.587Z,100416.44
2022-09-06T19:57:42.417Z,100421.31
2022-09-06T20:00:46.391Z,100419.81
2022-09-06T20:03:50.288Z,100416.50
2022-09-06T20:06:53.454Z,100412.81
2022-09-06T20:09:57.003Z,100410.66
2022-09-06T20:12:59.849Z,100407.03
2022-09-06T20:16:04.465Z,100400.06
2022-09-06T20:19:07.197Z,100406.59
2022-09-06T20:22:11.468Z,100390.50
2022-09-06T20:25:14.905Z,100396.84
2022-09-06T20:28:27.795Z,100400.75
2022-09-06T20:31:32.350Z,100401.22
2022-09-06T20:34:35.608Z,100391.94
2022-09-06T20:37:38.881Z,100400.34
2022-09-06T20:40:41.875Z,100397.81
2022-09-06T20:43:45.345Z,100403.37
2022-09-06T20:46:48.375Z,100396.72
2022-09-06T20:49:51.290Z,100402.94
2022-09-06T20:52:54.255Z,100406.75
2022-09-06T20:55:59.106Z,100399.91
2022-09-06T20:59:04.927Z,100404.22
2022-09-06T21:02:07.968Z,100402.78
2022-09-06T21:05:10.924Z,100403.25
2022-09-06T21:08:13.858Z,100398.84
2022-09-06T21:11:17.886Z,100398.19
2022-09-06T21:14:20.576Z,100399.75
2022-09-06T21:17:23.550Z,100396.72
2022-09-06T21:20:26.605Z,100392.31
2022-09-06T21:23:32.890Z,100400.19
2022-09-06T21:26:35.814Z,100403.72
2022-09-06T21:29:38.831Z,100403.09
2022-09-06T21:32:41.591Z,100405.78
2022-09-06T21:35:44.578Z,100401.69
2022-09-06T21:38:49.308Z,100394.72
